Time;durP1;ratioP1;P1;durP2;ratioP2;P2;SDS_P1;SDS_P2;PMS_P1;PMS_P2;Temp;Humidity;BMP_temperature;BMP_pressure;BME280_temperature;BME280_humidity;BME280_pressure;Samples;Min_cycle;Max_cycle;Signal;HPM_P1;HPM_P2
2024/03/06 00:00:40;;;;;;;23.88;6.65;;;;;;;4.85;98.00;100937.84;4944498;29;20055;-57
2024/03/06 00:03:07;;;;;;;46.33;7.70;;;;;;;4.85;97.99;100935.91;4932820;29;20047;-53
2024/03/06 00:05:34;;;;;;;18.83;5.43;;;;;;;4.83;98.17;100932.69;4932860;29;20071;-56
2024/03/06 00:08:03;;;;;;;26.75;6.63;;;;;;;4.84;98.01;100928.00;4932174;29;20485;-57
2024/03/06 00:10:31;;;;;;;17.85;5.93;;;;;;;4.85;98.19;100924.94;4932569;29;20522;-55
2024/03/06 00:12:58;;;;;;;19.73;5.13;;;;;;;4.88;98.26;100923.53;4932384;29;20066;-57
2024/03/06 00:15:27;;;;;;;25.98;6.25;;;;;;;4.88;98.20;100940.00;4932606;29;20044;-56
2024/03/06 00:17:55;;;;;;;19.23;5.85;;;;;;;4.87;97.95;100932.91;4932430;29;20053;-53
2024/03/06 00:20:22;;;;;;;17.50;5.80;;;;;;;4.87;97.81;100927.41;4931719;29;20055;-57
2024/03/06 00:22:49;;;;;;;23.40;5.63;;;;;;;4.85;97.79;100941.41;4932723;29;20058;-57
2024/03/06 00:25:17;;;;;;;22.42;5.28;;;;;;;4.87;98.00;100938.38;4931304;29;20063;-56
2024/03/06 00:27:44;;;;;;;21.65;4.70;;;;;;;4.86;98.27;100936.75;4931922;29;20051;-56
2024/03/06 00:30:12;;;;;;;15.50;3.97;;;;;;;4.86;98.38;100939.47;4932550;29;20048;-55
2024/03/06 00:32:39;;;;;;;15.27;4.10;;;;;;;4.86;98.22;100928.50;4932320;29;20056;-56
2024/03/06 00:35:07;;;;;;;10.95;3.42;;;;;;;4.86;98.19;100934.81;4932208;29;20048;-57
2024/03/06 00:37:34;;;;;;;15.30;3.50;;;;;;;4.88;98.47;100940.81;4932058;29;20861;-54
2024/03/06 00:40:03;;;;;;;18.00;4.95;;;;;;;4.86;98.09;100943.03;4945105;29;20044;-57
2024/03/06 00:42:30;;;;;;;14.20;4.40;;;;;;;4.82;97.96;100936.53;4932218;29;20059;-57
2024/03/06 00:44:58;;;;;;;15.23;3.85;;;;;;;4.80;98.31;100935.19;4945006;29;20792;-54
2024/03/06 00:47:25;;;;;;;16.65;3.70;;;;;;;4.80;98.34;100936.03;4950682;29;20059;-55
2024/03/06 00:49:52;;;;;;;15.27;4.13;;;;;;;4.79;98.37;100931.63;4925160;29;20047;-59
2024/03/06 00:52:20;;;;;;;20.67;3.63;;;;;;;4.80;98.00;100927.78;4942318;29;20051;-54
2024/03/06 00:54:47;;;;;;;14.15;3.80;;;;;;;4.77;98.32;100924.81;4931661;29;20063;-56
2024/03/06 00:57:14;;;;;;;17.38;3.63;;;;;;;4.74;98.47;100923.50;4932267;29;20410;-57
2024/03/06 00:59:42;;;;;;;16.23;4.45;;;;;;;4.74;98.25;100928.16;4938859;29;20535;-55
2024/03/06 01:02:10;;;;;;;17.15;3.97;;;;;;;4.71;98.33;100920.56;4939190;29;20051;-59
2024/03/06 01:04:37;;;;;;;12.60;2.97;;;;;;;4.68;98.56;100930.22;4941924;29;20066;-58
2024/03/06 01:07:05;;;;;;;12.80;4.07;;;;;;;4.63;98.53;100938.50;4926674;29;20599;-56
2024/03/06 01:09:32;;;;;;;23.88;4.45;;;;;;;4.60;98.57;100944.63;4930844;29;20051;-57
2024/03/06 01:11:59;;;;;;;14.60;3.28;;;;;;;4.59;98.63;100944.91;4930656;29;20521;-59
2024/03/06 01:14:27;;;;;;;13.38;3.67;;;;;;;4.54;98.47;100940.31;4930793;29;20051;-57
2024/03/06 01:16:54;;;;;;;11.00;3.50;;;;;;;4.46;98.47;100943.75;4931248;29;20053;-57
2024/03/06 01:19:21;;;;;;;16.80;3.70;;;;;;;4.44;98.97;100934.19;4930025;29;20040;-56
2024/03/06 01:21:48;;;;;;;14.65;3.42;;;;;;;4.43;98.62;100943.53;4931096;29;20458;-57
2024/03/06 01:24:16;;;;;;;13.30;3.28;;;;;;;4.41;98.85;100934.78;4930744;29;20094;-55
2024/03/06 01:26:43;;;;;;;10.20;3.33;;;;;;;4.40;99.05;100930.41;4930928;29;20040;-57
2024/03/06 01:29:10;;;;;;;23.05;4.72;;;;;;;4.38;98.87;100936.22;4930914;29;20059;-57
2024/03/06 01:31:38;;;;;;;15.60;4.30;;;;;;;4.39;99.12;100928.81;4941722;29;20048;-57
2024/03/06 01:34:05;;;;;;;17.65;2.60;;;;;;;4.40;99.20;100933.16;4930281;29;20537;-55
2024/03/06 01:36:33;;;;;;;21.42;3.65;;;;;;;4.39;99.02;100931.53;4929464;29;20455;-56
2024/03/06 01:39:00;;;;;;;20.63;4.85;;;;;;;4.40;99.23;100938.63;4930200;29;20054;-56
2024/03/06 01:41:27;;;;;;;15.68;3.55;;;;;;;4.40;99.18;100933.16;4931663;29;20047;-56
2024/03/06 01:43:55;;;;;;;16.52;5.28;;;;;;;4.37;99.32;100942.00;4930909;29;20142;-55
2024/03/06 01:46:22;;;;;;;16.77;4.40;;;;;;;4.36;98.97;100937.63;4930781;29;20044;-56
2024/03/06 01:48:50;;;;;;;16.92;3.90;;;;;;;4.32;99.17;100940.97;4929885;29;20051;-57
2024/03/06 01:51:17;;;;;;;13.40;3.20;;;;;;;4.32;99.37;100943.69;4930903;29;20699;-55
2024/03/06 01:53:45;;;;;;;12.90;3.13;;;;;;;4.30;99.21;100937.72;4938084;29;20047;-57
2024/03/06 01:56:17;;;;;;;14.07;3.55;;;;;;;4.29;99.33;100944.28;4930290;29;20056;-55
2024/03/06 01:58:48;;;;;;;18.05;4.50;;;;;;;4.27;99.24;100932.81;4930007;29;20047;-59
2024/03/06 02:01:16;;;;;;;17.58;4.50;;;;;;;4.26;99.53;100936.66;4930909;29;20063;-56
2024/03/06 02:03:45;;;;;;;17.30;4.63;;;;;;;4.25;99.60;100932.31;4930416;29;20047;-57
2024/03/06 02:06:14;;;;;;;19.33;3.90;;;;;;;4.21;99.58;100922.22;4930015;29;20051;-56
2024/03/06 02:08:42;;;;;;;14.93;3.78;;;;;;;4.18;99.36;100925.59;4929944;29;20047;-56
2024/03/06 02:11:09;;;;;;;16.13;3.75;;;;;;;4.15;99.83;100917.97;4932421;29;20775;-58
2024/03/06 02:13:38;;;;;;;20.17;4.07;;;;;;;4.14;100.00;100925.38;4930227;29;20052;-55
2024/03/06 02:16:06;;;;;;;19.92;4.35;;;;;;;4.11;99.82;100920.47;4930906;29;20044;-56
2024/03/06 02:18:33;;;;;;;11.07;3.85;;;;;;;4.11;100.00;100920.47;4929953;29;20363;-57
2024/03/06 02:21:00;;;;;;;24.85;3.70;;;;;;;4.15;100.00;100920.69;4933049;29;20052;-57
2024/03/06 02:23:28;;;;;;;18.63;3.35;;;;;;;4.17;100.00;100923.94;4931442;29;20052;-58
2024/03/06 02:25:56;;;;;;;10.55;3.40;;;;;;;4.21;100.00;100920.31;4934119;29;20039;-55
2024/03/06 02:28:23;;;;;;;18.08;5.07;;;;;;;4.24;100.00;100907.94;4929603;29;20051;-57
2024/03/06 02:30:51;;;;;;;19.33;4.07;;;;;;;4.29;100.00;100916.88;4934459;29;20058;-57
2024/03/06 02:33:19;;;;;;;31.63;6.80;;;;;;;4.35;100.00;100919.53;4939114;29;20043;-57
2024/03/06 02:35:47;;;;;;;23.45;5.18;;;;;;;4.41;100.00;100918.34;4936363;29;20071;-59
2024/03/06 02:38:15;;;;;;;19.92;4.40;;;;;;;4.46;100.00;100910.84;4936602;29;20040;-57
2024/03/06 02:40:44;;;;;;;20.83;4.10;;;;;;;4.51;100.00;100912.69;4936521;29;20484;-57
2024/03/06 02:43:11;;;;;;;24.42;5.32;;;;;;;4.55;100.00;100914.56;4936628;29;20048;-57
2024/03/06 02:45:39;;;;;;;24.17;4.50;;;;;;;4.60;100.00;100910.91;4947746;29;20055;-57
2024/03/06 02:48:06;;;;;;;26.85;6.43;;;;;;;4.62;100.00;100909.47;4938031;29;20047;-56
2024/03/06 02:50:34;;;;;;;41.33;7.35;;;;;;;4.65;100.00;100911.63;4919753;29;20048;-57
2024/03/06 02:53:01;;;;;;;19.25;4.93;;;;;;;4.67;100.00;100911.31;4938067;29;20057;-55
2024/03/06 02:55:30;;;;;;;19.60;3.42;;;;;;;4.68;100.00;100911.03;4936163;29;20063;-55
2024/03/06 02:58:01;;;;;;;23.55;4.47;;;;;;;4.68;100.00;100904.72;4936601;29;20410;-55
2024/03/06 03:00:32;;;;;;;14.03;2.50;;;;;;;4.69;100.00;100903.59;5033203;23;20040;-51
2024/03/06 03:02:59;;;;;;;15.30;4.78;;;;;;;4.69;100.00;100903.59;5066097;22;20488;-49
2024/03/06 03:05:27;;;;;;;20.30;5.82;;;;;;;4.68;100.00;100901.97;5071481;28;20056;-54
2024/03/06 03:07:54;;;;;;;19.00;5.57;;;;;;;4.68;100.00;100907.47;5064223;28;20053;-53
2024/03/06 03:10:24;;;;;;;18.00;4.40;;;;;;;4.69;100.00;100903.59;5061748;28;20048;-55
2024/03/06 03:12:53;;;;;;;22.48;6.78;;;;;;;4.65;100.00;100889.69;5072714;28;20048;-52
2024/03/06 03:15:21;;;;;;;15.02;3.95;;;;;;;4.62;100.00;100897.69;5072500;28;20040;-55
2024/03/06 03:17:48;;;;;;;20.05;4.18;;;;;;;4.60;100.00;100894.44;5072610;28;20048;-50
2024/03/06 03:20:16;;;;;;;15.90;3.60;;;;;;;4.59;100.00;100888.13;5068140;28;20060;-56
2024/03/06 03:22:44;;;;;;;23.02;4.90;;;;;;;4.58;100.00;100891.19;5066346;28;20045;-55
2024/03/06 03:25:13;;;;;;;18.17;5.72;;;;;;;4.56;100.00;100890.66;5073335;28;20072;-56
2024/03/06 03:27:41;;;;;;;13.85;3.25;;;;;;;4.54;100.00;100895.63;5073110;28;20048;-53
2024/03/06 03:30:09;;;;;;;20.27;3.90;;;;;;;4.51;100.00;100886.09;5071689;28;20505;-55
2024/03/06 03:32:37;;;;;;;17.55;3.50;;;;;;;4.50;100.00;100881.72;5063911;28;20047;-55
2024/03/06 03:35:06;;;;;;;20.90;3.83;;;;;;;4.49;100.00;100887.50;5065859;28;20033;-55
2024/03/06 03:37:34;;;;;;;25.27;3.92;;;;;;;4.48;100.00;100888.59;5072907;28;20048;-51
2024/03/06 03:40:03;;;;;;;20.33;3.83;;;;;;;4.46;100.00;100888.94;5071179;28;20052;-53
2024/03/06 03:42:30;;;;;;;22.88;4.25;;;;;;;4.46;100.00;100893.59;5070139;28;20055;-51
2024/03/06 03:44:58;;;;;;;20.20;4.30;;;;;;;4.44;100.00;100882.13;5068770;28;20048;-53
2024/03/06 03:47:25;;;;;;;20.48;3.97;;;;;;;4.44;100.00;100884.88;5069549;28;20045;-56
2024/03/06 03:49:52;;;;;;;22.98;4.75;;;;;;;4.45;100.00;100891.97;5069677;28;20413;-53
2024/03/06 03:52:35;;;;;;;21.50;4.75;;;;;;;4.45;100.00;100890.03;5062877;28;20045;-53
2024/03/06 03:55:03;;;;;;;22.52;4.45;;;;;;;4.47;100.00;100884.25;5069784;28;20048;-55
2024/03/06 03:57:31;;;;;;;24.63;5.32;;;;;;;4.47;100.00;100884.25;5068781;28;20053;-53
2024/03/06 03:59:58;;;;;;;17.05;4.40;;;;;;;4.48;100.00;100888.59;5058830;28;20056;-54
2024/03/06 04:02:25;;;;;;;23.98;4.90;;;;;;;4.49;100.00;100884.78;5068337;28;20060;-54
2024/03/06 04:04:53;;;;;;;25.35;4.47;;;;;;;4.50;100.00;100883.66;5069506;28;20124;-48
2024/03/06 04:07:20;;;;;;;18.98;4.32;;;;;;;4.51;100.00;100885.28;5058980;28;20044;-52
2024/03/06 04:09:48;;;;;;;23.10;5.05;;;;;;;4.53;100.00;100877.56;5050869;28;20533;-52
2024/03/06 04:12:16;;;;;;;13.27;4.10;;;;;;;4.53;100.00;100872.88;5066345;28;20040;-54
2024/03/06 04:14:43;;;;;;;20.90;3.90;;;;;;;4.53;100.00;100870.16;5068734;28;20052;-53
2024/03/06 04:17:10;;;;;;;26.98;6.75;;;;;;;4.55;100.00;100869.88;5062319;28;20087;-50
2024/03/06 04:19:38;;;;;;;19.42;5.10;;;;;;;4.57;100.00;100867.63;5069160;28;20041;-51
2024/03/06 04:22:05;;;;;;;20.50;3.58;;;;;;;4.59;100.00;100870.88;5067570;28;20040;-50
2024/03/06 04:24:33;;;;;;;15.52;3.63;;;;;;;4.59;100.00;100876.34;5068695;28;20630;-54
2024/03/06 04:27:00;;;;;;;20.92;4.45;;;;;;;4.59;100.00;100865.38;5068844;28;20476;-55
2024/03/06 04:29:27;;;;;;;28.48;4.45;;;;;;;4.60;100.00;100872.50;5069104;28;20049;-54
2024/03/06 04:31:55;;;;;;;15.93;4.35;;;;;;;4.61;100.00;100874.13;5064804;28;20383;-54
2024/03/06 04:34:23;;;;;;;16.35;4.32;;;;;;;4.62;100.00;100886.72;5069059;28;20398;-54
2024/03/06 04:36:50;;;;;;;24.13;4.00;;;;;;;4.63;100.00;100882.88;5068260;28;20041;-52
2024/03/06 04:39:19;;;;;;;23.65;4.72;;;;;;;4.64;100.00;100876.25;5067750;28;20037;-51
2024/03/06 04:41:46;;;;;;;13.00;3.55;;;;;;;4.67;100.00;100872.91;5067570;28;20052;-54
2024/03/06 04:44:13;;;;;;;18.90;3.65;;;;;;;4.67;100.00;100884.69;5067164;28;20049;-56
2024/03/06 04:46:41;;;;;;;25.77;4.95;;;;;;;4.69;100.00;100879.72;5068539;28;20068;-52
2024/03/06 04:49:08;;;;;;;20.63;4.47;;;;;;;4.69;100.00;100881.66;5064105;28;20052;-55
2024/03/06 04:51:35;;;;;;;20.98;4.65;;;;;;;4.70;100.00;100880.53;5060862;28;20055;-50
2024/03/06 04:54:03;;;;;;;20.60;4.63;;;;;;;4.69;100.00;100882.47;5066791;28;20063;-54
2024/03/06 04:56:30;;;;;;;22.77;3.75;;;;;;;4.68;100.00;100880.84;5068416;28;20079;-53
2024/03/06 04:59:02;;;;;;;16.90;3.90;;;;;;;4.68;100.00;100891.81;5067390;28;20052;-48
2024/03/06 05:01:30;;;;;;;;;;;;;;;4.67;100.00;100883.88;5067395;28;20048;-54
2024/03/06 05:03:57;;;;;;;27.73;4.78;;;;;;;4.67;100.00;100884.69;5066716;28;20352;-53
2024/03/06 05:06:45;;;;;;;23.58;4.32;;;;;;;4.68;100.00;100874.56;5068044;28;20055;-57
2024/03/06 05:09:30;;;;;;;32.78;6.32;;;;;;;4.68;100.00;100880.84;5064493;28;20083;-55
2024/03/06 05:12:15;;;;;;;30.83;6.90;;;;;;;4.71;100.00;100885.72;5064969;28;20394;-48
2024/03/06 05:15:00;;;;;;;26.00;5.55;;;;;;;4.74;100.00;100879.63;5050168;28;20044;-54
2024/03/06 05:17:44;;;;;;;18.33;4.70;;;;;;;4.74;100.00;100876.88;5068676;28;20041;-48
2024/03/06 05:20:30;;;;;;;21.50;3.67;;;;;;;4.74;100.00;100876.06;5067236;28;20033;-51
2024/03/06 05:23:17;;;;;;;22.40;3.20;;;;;;;4.72;100.00;100881.88;5066999;28;20028;-53
2024/03/06 05:26:02;;;;;;;19.48;4.43;;;;;;;4.72;100.00;100875.56;5057377;28;20041;-50
2024/03/06 05:28:46;;;;;;;19.13;4.18;;;;;;;4.70;100.00;100873.13;5066853;28;20044;-52
2024/03/06 05:31:32;;;;;;;18.52;4.03;;;;;;;4.71;100.00;100880.22;5066187;28;20482;-55
2024/03/06 05:34:16;;;;;;;22.60;4.25;;;;;;;4.70;100.00;100883.28;5048591;28;20037;-55
2024/03/06 05:37:03;;;;;;;25.55;4.47;;;;;;;4.71;100.00;100879.44;5055137;28;20048;-55
2024/03/06 05:39:48;;;;;;;28.60;4.97;;;;;;;4.71;100.00;100880.22;5067794;28;20386;-55
2024/03/06 05:42:33;;;;;;;19.88;4.50;;;;;;;4.72;100.00;100878.31;5055933;28;20763;-52
2024/03/06 05:45:18;;;;;;;30.70;5.78;;;;;;;4.72;100.00;100881.03;5061496;28;20045;-53
2024/03/06 05:48:03;;;;;;;24.90;4.90;;;;;;;4.72;100.00;100878.31;5065436;28;20040;-56
2024/03/06 05:50:48;;;;;;;26.60;4.97;;;;;;;4.73;100.00;100883.50;5067777;28;20044;-51
2024/03/06 05:53:42;;;;;;;22.35;4.75;;;;;;;4.74;100.00;100876.06;5067558;28;20044;-54
2024/03/06 05:56:26;;;;;;;19.77;4.60;;;;;;;4.73;100.00;100888.97;5056940;28;20029;-56
2024/03/06 05:59:11;;;;;;;29.48;3.88;;;;;;;4.74;100.00;100884.28;5063746;28;20041;-50
2024/03/06 06:01:38;;;;;;;26.95;5.20;;;;;;;4.75;100.00;100886.75;5065190;28;20064;-53
2024/03/06 06:04:06;;;;;;;24.67;4.13;;;;;;;4.77;100.00;100894.66;5063535;28;20045;-52
2024/03/06 06:06:35;;;;;;;25.70;4.50;;;;;;;4.77;100.00;100889.16;5063859;28;20236;-52
2024/03/06 06:09:05;;;;;;;17.67;3.58;;;;;;;4.82;100.00;100891.81;5066785;28;20045;-56
2024/03/06 06:11:33;;;;;;;19.08;5.55;;;;;;;4.84;100.00;100895.09;5065608;28;20040;-52
2024/03/06 06:14:00;;;;;;;30.05;4.72;;;;;;;4.87;100.00;100899.97;5062543;28;20053;-54
2024/03/06 06:16:35;;;;;;;20.88;5.50;;;;;;;4.89;100.00;100900.47;5066118;28;20053;-55
2024/03/06 06:19:03;;;;;;;34.50;5.22;;;;;;;4.92;100.00;100905.38;5066499;28;20124;-53
2024/03/06 06:21:31;;;;;;;28.90;8.45;;;;;;;4.91;100.00;100900.97;5056541;28;20075;-53
2024/03/06 06:23:58;;;;;;;28.70;5.00;;;;;;;4.91;100.00;100912.78;5054015;28;20048;-53
2024/03/06 06:26:25;;;;;;;24.58;4.72;;;;;;;4.92;100.00;100908.91;5065809;28;20055;-50
2024/03/06 06:28:53;;;;;;;21.08;6.45;;;;;;;4.92;100.00;100897.91;5066524;28;20052;-55
2024/03/06 06:31:20;;;;;;;41.10;4.95;;;;;;;4.92;100.00;100905.38;5065359;28;20052;-48
2024/03/06 06:33:48;;;;;;;37.67;5.55;;;;;;;4.93;100.00;100904.22;5060013;28;20041;-50
2024/03/06 06:36:15;;;;;;;25.40;4.65;;;;;;;4.93;100.00;100906.97;5066125;28;20051;-53
2024/03/06 06:38:42;;;;;;;27.85;4.85;;;;;;;4.92;100.00;100914.38;5066094;28;20053;-53
2024/03/06 06:41:13;;;;;;;38.78;7.65;;;;;;;4.90;100.00;100913.88;5065707;28;20437;-54
2024/03/06 06:43:41;;;;;;;26.77;5.15;;;;;;;4.89;100.00;100915.00;5065361;28;20044;-51
2024/03/06 06:46:09;;;;;;;21.75;5.60;;;;;;;4.89;100.00;100922.44;5062872;28;20064;-57
2024/03/06 06:48:36;;;;;;;29.45;5.20;;;;;;;4.90;100.00;100913.06;5057039;28;20406;-57
2024/03/06 06:51:04;;;;;;;40.53;7.53;;;;;;;4.90;100.00;100915.81;5063265;28;20057;-55
2024/03/06 06:53:31;;;;;;;24.52;4.80;;;;;;;4.89;100.00;100919.69;5065198;28;20053;-53
2024/03/06 06:55:59;;;;;;;21.75;6.03;;;;;;;4.88;100.00;100921.59;5066347;28;20037;-52
2024/03/06 06:58:29;;;;;;;27.20;5.95;;;;;;;4.85;100.00;100913.97;5065989;28;20041;-56
2024/03/06 07:00:57;;;;;;;38.22;8.25;;;;;;;4.86;100.00;100914.78;5066210;28;20032;-54
2024/03/06 07:03:29;;;;;;;30.27;5.70;;;;;;;4.86;100.00;100929.34;5066023;28;20044;-57
2024/03/06 07:05:57;;;;;;;19.27;4.80;;;;;;;4.86;100.00;100921.09;5063732;28;20106;-51
2024/03/06 07:08:24;;;;;;;27.55;4.95;;;;;;;4.86;100.00;100909.31;5060632;28;20059;-52
2024/03/06 07:10:57;;;;;;;22.98;5.43;;;;;;;4.86;100.00;100914.78;5058577;28;20044;-56
2024/03/06 07:13:24;;;;;;;38.72;9.90;;;;;;;4.86;100.00;100909.31;5044499;28;20422;-52
2024/03/06 07:15:52;;;;;;;32.95;4.65;;;;;;;4.85;100.00;100913.97;5066573;28;20045;-54
2024/03/06 07:18:19;;;;;;;28.92;5.00;;;;;;;4.87;100.00;100916.44;5067422;28;20063;-55
2024/03/06 07:20:47;;;;;;;23.50;5.18;;;;;;;4.88;100.00;100907.06;5051519;28;20048;-54
2024/03/06 07:23:14;;;;;;;43.10;12.15;;;;;;;4.90;100.00;100918.53;5068915;28;20631;-54
2024/03/06 07:25:42;;;;;;;33.42;11.60;;;;;;;4.91;100.00;100922.94;5060046;28;20045;-56
2024/03/06 07:28:09;;;;;;;45.45;15.95;;;;;;;4.92;100.00;100924.56;5067432;28;20056;-56
2024/03/06 07:30:36;;;;;;;28.58;9.48;;;;;;;4.93;100.00;100918.75;5067650;28;20048;-55
2024/03/06 07:33:04;;;;;;;25.13;5.35;;;;;;;4.97;100.00;100904.44;5069230;28;20048;-54
2024/03/06 07:35:31;;;;;;;31.08;5.97;;;;;;;5.02;100.00;100912.56;5067042;28;20044;-56
2024/03/06 07:37:59;;;;;;;23.67;4.60;;;;;;;5.04;100.00;100916.63;5062430;28;20048;-54
2024/03/06 07:40:27;;;;;;;25.95;5.47;;;;;;;5.06;100.00;100917.13;5069736;28;20056;-56
2024/03/06 07:42:54;;;;;;;17.35;6.05;;;;;;;5.11;100.00;100910.75;5069651;28;20560;-51
2024/03/06 07:45:21;;;;;;;19.92;5.00;;;;;;;5.13;100.00;100912.06;5070201;28;20036;-55
2024/03/06 07:47:48;;;;;;;32.15;4.60;;;;;;;5.18;100.00;100911.16;5044960;28;20041;-55
2024/03/06 07:50:18;;;;;;;14.38;4.05;;;;;;;5.20;100.00;100912.47;5069505;28;20057;-55
2024/03/06 07:52:47;;;;;;;20.63;4.68;;;;;;;5.23;100.00;100906.38;5069966;28;20572;-54
2024/03/06 07:55:14;;;;;;;26.23;4.72;;;;;;;5.29;100.00;100904.34;5065819;28;20044;-53
2024/03/06 07:57:42;;;;;;;26.58;5.38;;;;;;;5.32;100.00;100910.03;5069238;28;20045;-53
2024/03/06 08:00:19;;;;;;;26.60;5.13;;;;;;;5.37;100.00;100911.88;5069470;28;20536;-54
2024/03/06 08:02:49;;;;;;;15.32;3.85;;;;;;;5.40;100.00;100905.75;5061080;28;20056;-53
2024/03/06 08:05:18;;;;;;;23.60;4.88;;;;;;;5.44;100.00;100909.50;5052388;28;20498;-54
2024/03/06 08:07:48;;;;;;;25.50;5.90;;;;;;;5.47;100.00;100909.72;5069936;28;20075;-53
2024/03/06 08:10:18;;;;;;;26.80;5.53;;;;;;;5.52;100.00;100906.88;5065870;28;20060;-54
2024/03/06 08:12:48;;;;;;;27.70;8.00;;;;;;;5.58;100.00;100904.81;5067813;28;20055;-55
2024/03/06 08:15:15;;;;;;;22.15;6.05;;;;;;;5.61;100.00;100903.38;5048163;28;20049;-52
2024/03/06 08:17:43;;;;;;;24.48;5.85;;;;;;;5.66;100.00;100909.59;5065334;28;20047;-56
2024/03/06 08:20:12;;;;;;;39.65;7.97;;;;;;;5.71;100.00;100903.97;5064911;28;20469;-55
2024/03/06 08:22:41;;;;;;;28.13;7.57;;;;;;;5.75;100.00;100898.66;5057241;28;20056;-52
2024/03/06 08:25:10;;;;;;;25.38;4.97;;;;;;;5.82;100.00;100904.56;5058223;28;20045;-54
2024/03/06 08:27:40;;;;;;;28.92;6.13;;;;;;;5.86;100.00;100913.81;5066539;28;20040;-56
2024/03/06 08:30:09;;;;;;;41.92;4.88;;;;;;;5.88;100.00;100920.63;5048740;28;20052;-54
2024/03/06 08:32:37;;;;;;;20.95;4.28;;;;;;;5.92;100.00;100915.34;5066189;28;20079;-55
2024/03/06 08:35:11;;;;;;;29.25;4.82;;;;;;;5.97;100.00;100926.22;5066545;28;20048;-50
2024/03/06 08:37:42;;;;;;;18.10;4.50;;;;;;;6.00;100.00;100922.84;5064850;28;20486;-56
2024/03/06 08:40:14;;;;;;;19.15;4.10;;;;;;;6.04;100.00;100919.16;5064604;28;20045;-55
2024/03/06 08:42:42;;;;;;;17.35;4.07;;;;;;;6.09;100.00;100915.47;5068080;28;20068;-54
2024/03/06 08:45:10;;;;;;;18.27;4.10;;;;;;;6.13;100.00;100920.06;5067657;28;20500;-53
2024/03/06 08:47:38;;;;;;;20.67;4.18;;;;;;;6.16;100.00;100913.13;5068082;28;20048;-55
2024/03/06 08:50:07;;;;;;;31.52;4.47;;;;;;;6.21;100.00;100917.69;5056713;28;20056;-55
2024/03/06 08:52:36;;;;;;;18.20;3.47;;;;;;;6.25;100.00;100916.72;5062108;28;20048;-55
2024/03/06 08:55:06;;;;;;;20.95;4.78;;;;;;;6.28;100.00;100929.88;5058800;28;20049;-56
2024/03/06 08:57:36;;;;;;;19.65;2.80;;;;;;;6.33;100.00;100926.97;5065987;28;20528;-55
2024/03/06 09:00:10;;;;;;;27.65;4.03;;;;;;;6.35;100.00;100930.25;5067861;28;20040;-54
2024/03/06 09:02:38;;;;;;;21.83;4.85;;;;;;;6.39;100.00;100928.50;5067713;28;20052;-51
2024/03/06 09:05:10;;;;;;;27.92;4.85;;;;;;;6.45;100.00;100930.00;5067172;28;20040;-55
2024/03/06 09:07:40;;;;;;;25.13;4.27;;;;;;;6.50;100.00;100949.13;5066796;28;20049;-56
2024/03/06 09:10:09;;;;;;;34.50;5.93;;;;;;;6.54;100.00;100941.84;5066870;28;20048;-52
2024/03/06 09:12:37;;;;;;;20.20;4.82;;;;;;;6.60;100.00;100943.34;5060032;28;20040;-51
2024/03/06 09:15:07;;;;;;;24.42;5.55;;;;;;;6.65;100.00;100934.16;5065656;28;20414;-55
2024/03/06 09:17:34;;;;;;;24.67;4.03;;;;;;;6.69;100.00;100935.16;5056242;28;20048;-55
2024/03/06 09:20:09;;;;;;;21.80;3.45;;;;;;;6.75;100.00;100936.66;5067598;28;20044;-54
2024/03/06 09:22:42;;;;;;;18.80;4.00;;;;;;;6.82;100.00;100927.94;5066931;28;20406;-54
2024/03/06 09:25:13;;;;;;;14.47;4.10;;;;;;;6.88;100.00;100932.19;5065395;28;20041;-55
2024/03/06 09:27:42;;;;;;;17.70;3.47;;;;;;;6.94;100.00;100937.22;5058520;28;20048;-52
2024/03/06 09:30:13;;;;;;;25.70;5.47;;;;;;;7.01;100.00;100942.31;5065765;28;20528;-54
2024/03/06 09:32:41;;;;;;;12.95;3.58;;;;;;;7.09;100.00;100947.03;5065393;28;20053;-54
2024/03/06 09:35:09;;;;;;;22.35;4.40;;;;;;;7.15;100.00;100943.00;5067304;28;20048;-56
2024/03/06 09:37:36;;;;;;;22.45;3.58;;;;;;;7.25;100.00;100953.75;5068390;28;20041;-52
2024/03/06 09:40:04;;;;;;;17.08;3.88;;;;;;;7.34;100.00;100958.16;5066192;28;20048;-57
2024/03/06 09:42:32;;;;;;;29.58;4.05;;;;;;;7.49;100.00;100947.84;5067354;28;20036;-56
2024/03/06 09:45:01;;;;;;;15.32;4.72;;;;;;;7.65;100.00;100962.81;5067382;28;20414;-56
2024/03/06 09:47:32;;;;;;;24.38;3.75;;;;;;;7.75;100.00;100963.31;5066664;28;20044;-56
2024/03/06 09:50:02;;;;;;;19.85;3.72;;;;;;;7.83;100.00;100958.94;5066845;28;20045;-55
2024/03/06 09:52:31;;;;;;;20.77;4.68;;;;;;;7.88;100.00;100956.03;5066170;28;20768;-54
2024/03/06 09:55:00;;;;;;;19.05;4.22;;;;;;;7.91;100.00;100964.47;5067178;28;20514;-55
2024/03/06 09:57:28;;;;;;;23.67;3.97;;;;;;;7.92;100.00;100960.56;5063232;28;20041;-56
2024/03/06 09:59:55;;;;;;;17.63;3.00;;;;;;;7.95;100.00;100951.66;5062382;28;20040;-56
2024/03/06 10:02:38;;;;;;;17.75;3.92;;;;;;;8.00;100.00;100958.94;5066345;28;20892;-56
2024/03/06 10:05:20;;;;;;;13.80;4.18;;;;;;;8.05;100.00;100955.25;5066674;28;20041;-53
2024/03/06 10:07:48;;;;;;;22.02;3.85;;;;;;;8.12;100.00;100952.81;5055231;28;20045;-54
2024/03/06 10:10:16;;;;;;;21.92;4.20;;;;;;;8.14;100.00;100958.81;5065838;28;20045;-58
2024/03/06 10:12:45;;;;;;;29.63;4.55;;;;;;;8.15;100.00;100958.50;5067905;28;20566;-54
2024/03/06 10:15:12;;;;;;;28.23;3.72;;;;;;;8.16;100.00;100951.00;5065796;28;20052;-55
2024/03/06 10:17:40;;;;;;;25.75;3.90;;;;;;;8.17;100.00;100958.16;5064278;28;20060;-55
2024/03/06 10:20:22;;;;;;;16.55;3.10;;;;;;;8.19;100.00;100955.88;5066778;28;20040;-53
2024/03/06 10:22:51;;;;;;;25.90;3.90;;;;;;;8.23;100.00;100959.63;5062508;28;20048;-55
2024/03/06 10:25:26;;;;;;;21.98;4.75;;;;;;;8.27;100.00;100968.91;5064535;28;20044;-52
2024/03/06 10:28:05;;;;;;;21.20;4.30;;;;;;;8.30;100.00;100968.25;5066717;28;20398;-56
2024/03/06 10:30:37;;;;;;;18.73;3.45;;;;;;;8.32;100.00;100961.28;5062719;28;20049;-56
2024/03/06 10:33:07;;;;;;;24.55;5.40;;;;;;;8.37;100.00;100968.56;5066738;28;20048;-55
2024/03/06 10:35:37;;;;;;;23.15;3.60;;;;;;;8.42;100.00;100965.63;5065924;28;20057;-56
2024/03/06 10:38:06;;;;;;;19.48;4.57;;;;;;;8.48;100.00;100958.84;5064952;28;20047;-56
2024/03/06 10:40:36;;;;;;;19.67;4.00;;;;;;;8.50;100.00;100953.78;5065600;28;20048;-56
2024/03/06 10:43:05;;;;;;;18.90;3.88;;;;;;;8.54;100.00;100963.06;5057904;28;20055;-58
2024/03/06 10:45:38;;;;;;;17.83;4.20;;;;;;;8.57;100.00;100971.50;5065687;28;20508;-58
2024/03/06 10:48:07;;;;;;;26.77;5.68;;;;;;;8.61;100.00;100959.78;5064348;28;20045;-52
2024/03/06 10:50:36;;;;;;;23.58;3.00;;;;;;;8.67;100.00;100958.47;5066101;28;20041;-54
2024/03/06 10:53:12;;;;;;;18.35;4.13;;;;;;;8.70;100.00;100955.91;5069744;28;20056;-52
2024/03/06 10:55:44;;;;;;;20.40;3.42;;;;;;;8.68;100.00;100963.69;5064160;28;20060;-57
2024/03/06 10:58:12;;;;;;;23.98;2.90;;;;;;;8.64;100.00;100972.94;5066252;28;20052;-56
2024/03/06 11:00:41;;;;;;;27.10;4.95;;;;;;;8.62;100.00;100976.03;5067190;28;20071;-56
2024/03/06 11:03:12;;;;;;;14.75;3.53;;;;;;;8.60;100.00;100971.97;5066972;28;20514;-56
2024/03/06 11:05:40;;;;;;;21.98;4.55;;;;;;;8.61;100.00;100968.88;5070255;28;20048;-55
2024/03/06 11:08:09;;;;;;;19.38;4.35;;;;;;;8.63;100.00;100972.13;5066622;28;20059;-56
2024/03/06 11:10:39;;;;;;;21.55;4.50;;;;;;;8.68;100.00;100977.50;5068425;28;20044;-56
2024/03/06 11:13:25;;;;;;;18.27;4.43;;;;;;;8.78;100.00;100976.34;5069730;28;20041;-56
2024/03/06 11:15:57;;;;;;;17.23;3.90;;;;;;;8.95;100.00;100982.63;5068323;28;20051;-56
2024/03/06 11:18:28;;;;;;;23.00;5.20;;;;;;;9.13;100.00;100983.41;5069697;28;20045;-55
2024/03/06 11:21:01;;;;;;;19.02;4.22;;;;;;;9.22;100.00;100984.16;5069679;28;20037;-55
2024/03/06 11:23:32;;;;;;;26.73;4.45;;;;;;;9.35;100.00;100994.19;5069896;28;20048;-53
2024/03/06 11:26:04;;;;;;;16.42;3.80;;;;;;;9.47;100.00;100986.03;5070130;28;20499;-55
2024/03/06 11:28:34;;;;;;;16.95;3.75;;;;;;;9.49;100.00;100993.97;5047930;28;20036;-56
2024/03/06 11:31:06;;;;;;;18.42;3.28;;;;;;;9.43;100.00;100990.59;5062406;28;20053;-57